sensor_id;sensor_type;location;lat;lon;timestamp;temperature;humidity
1988;DHT22;12775;46.994;15.498;2023-03-01T00:01:20;5.30;76.30
1988;DHT22;12775;46.994;15.498;2023-03-01T00:03:45;5.30;76.30
1988;DHT22;12775;46.994;15.498;2023-03-01T00:06:11;5.30;76.40
1988;DHT22;12775;46.994;15.498;2023-03-01T00:08:39;5.40;76.30
1988;DHT22;12775;46.994;15.498;2023-03-01T00:11:07;5.40;76.40
1988;DHT22;12775;46.994;15.498;2023-03-01T00:13:34;5.40;76.30
1988;DHT22;12775;46.994;15.498;2023-03-01T00:16:04;5.50;76.10
1988;DHT22;12775;46.994;15.498;2023-03-01T00:18:30;5.50;76.80
1988;DHT22;12775;46.994;15.498;2023-03-01T00:20:58;5.50;76.60
1988;DHT22;12775;46.994;15.498;2023-03-01T00:23:25;5.50;76.60
1988;DHT22;12775;46.994;15.498;2023-03-01T00:25:53;5.50;76.90
1988;DHT22;12775;46.994;15.498;2023-03-01T00:28:20;5.50;77.50
1988;DHT22;12775;46.994;15.498;2023-03-01T00:30:47;5.50;77.70
1988;DHT22;12775;46.994;15.498;2023-03-01T00:33:14;5.50;77.00
1988;DHT22;12775;46.994;15.498;2023-03-01T00:35:42;5.50;76.10
1988;DHT22;12775;46.994;15.498;2023-03-01T00:38:09;5.50;76.10
1988;DHT22;12775;46.994;15.498;2023-03-01T00:40:37;5.60;76.50
1988;DHT22;12775;46.994;15.498;2023-03-01T00:43:05;5.50;77.20
1988;DHT22;12775;46.994;15.498;2023-03-01T00:45:32;5.60;77.30
1988;DHT22;12775;46.994;15.498;2023-03-01T00:48:00;5.60;77.50
1988;DHT22;12775;46.994;15.498;2023-03-01T00:50:27;5.60;78.40
1988;DHT22;12775;46.994;15.498;2023-03-01T00:52:54;5.70;79.50
1988;DHT22;12775;46.994;15.498;2023-03-01T00:55:22;5.60;78.90
1988;DHT22;12775;46.994;15.498;2023-03-01T00:57:49;5.60;78.60
1988;DHT22;12775;46.994;15.498;2023-03-01T01:00:17;5.70;79.10
1988;DHT22;12775;46.994;15.498;2023-03-01T01:02:44;5.70;78.90
1988;DHT22;12775;46.994;15.498;2023-03-01T01:05:12;5.70;78.50
1988;DHT22;12775;46.994;15.498;2023-03-01T01:07:39;5.70;78.40
1988;DHT22;12775;46.994;15.498;2023-03-01T01:10:07;5.70;78.00
1988;DHT22;12775;46.994;15.498;2023-03-01T01:12:34;5.70;77.80
1988;DHT22;12775;46.994;15.498;2023-03-01T01:15:02;5.70;78.10
1988;DHT22;12775;46.994;15.498;2023-03-01T01:17:29;5.70;78.40
1988;DHT22;12775;46.994;15.498;2023-03-01T01:19:57;5.70;77.90
1988;DHT22;12775;46.994;15.498;2023-03-01T01:22:24;5.70;77.50
1988;DHT22;12775;46.994;15.498;2023-03-01T01:24:51;5.80;77.10
1988;DHT22;12775;46.994;15.498;2023-03-01T01:27:19;5.70;76.80
1988;DHT22;12775;46.994;15.498;2023-03-01T01:29:46;5.80;76.80
1988;DHT22;12775;46.994;15.498;2023-03-01T01:32:13;5.80;76.80
1988;DHT22;12775;46.994;15.498;2023-03-01T01:34:41;5.70;76.80
1988;DHT22;12775;46.994;15.498;2023-03-01T01:37:08;5.70;77.60
1988;DHT22;12775;46.994;15.498;2023-03-01T01:39:36;5.70;77.00
1988;DHT22;12775;46.994;15.498;2023-03-01T01:42:03;5.70;77.10
1988;DHT22;12775;46.994;15.498;2023-03-01T01:44:33;5.70;76.70
1988;DHT22;12775;46.994;15.498;2023-03-01T01:47:01;5.70;76.80
1988;DHT22;12775;46.994;15.498;2023-03-01T01:49:31;5.70;77.30
1988;DHT22;12775;46.994;15.498;2023-03-01T01:51:58;5.60;77.20
1988;DHT22;12775;46.994;15.498;2023-03-01T01:54:25;5.60;77.50
1988;DHT22;12775;46.994;15.498;2023-03-01T01:56:55;5.60;77.80
1988;DHT22;12775;46.994;15.498;2023-03-01T01:59:20;5.70;77.30
1988;DHT22;12775;46.994;15.498;2023-03-01T02:01:47;5.60;77.50
1988;DHT22;12775;46.994;15.498;2023-03-01T02:04:15;5.70;77.90
1988;DHT22;12775;46.994;15.498;2023-03-01T02:07:00;5.70;78.30
1988;DHT22;12775;46.994;15.498;2023-03-01T02:09:25;5.70;78.00
1988;DHT22;12775;46.994;15.498;2023-03-01T02:11:52;5.70;77.90
1988;DHT22;12775;46.994;15.498;2023-03-01T02:14:21;5.60;77.90
1988;DHT22;12775;46.994;15.498;2023-03-01T02:16:48;5.70;77.50
1988;DHT22;12775;46.994;15.498;2023-03-01T02:19:19;5.70;77.90
1988;DHT22;12775;46.994;15.498;2023-03-01T02:21:49;5.70;78.80
1988;DHT22;12775;46.994;15.498;2023-03-01T02:24:32;5.70;78.40
1988;DHT22;12775;46.994;15.498;2023-03-01T02:26:55;5.60;78.30
1988;DHT22;12775;46.994;15.498;2023-03-01T02:29:23;5.70;78.00
1988;DHT22;12775;46.994;15.498;2023-03-01T02:31:50;5.70;79.00
1988;DHT22;12775;46.994;15.498;2023-03-01T02:34:18;5.70;79.50
1988;DHT22;12775;46.994;15.498;2023-03-01T02:36:47;5.70;79.20
1988;DHT22;12775;46.994;15.498;2023-03-01T02:39:18;5.70;79.10
1988;DHT22;12775;46.994;15.498;2023-03-01T02:41:47;5.70;78.50
1988;DHT22;12775;46.994;15.498;2023-03-01T02:44:11;5.80;78.80
1988;DHT22;12775;46.994;15.498;2023-03-01T02:46:44;5.70;78.80
1988;DHT22;12775;46.994;15.498;2023-03-01T02:49:19;5.80;79.00
1988;DHT22;12775;46.994;15.498;2023-03-01T02:52:04;5.80;79.60
1988;DHT22;12775;46.994;15.498;2023-03-01T02:54:46;5.80;79.30
1988;DHT22;12775;46.994;15.498;2023-03-01T02:57:13;5.80;78.70
1988;DHT22;12775;46.994;15.498;2023-03-01T02:59:40;5.80;79.10
1988;DHT22;12775;46.994;15.498;2023-03-01T03:02:17;5.70;78.80
1988;DHT22;12775;46.994;15.498;2023-03-01T03:04:35;5.80;78.80
1988;DHT22;12775;46.994;15.498;2023-03-01T03:07:02;5.80;78.90
1988;DHT22;12775;46.994;15.498;2023-03-01T03:09:30;5.80;78.80
1988;DHT22;12775;46.994;15.498;2023-03-01T03:11:57;5.80;78.60
1988;DHT22;12775;46.994;15.498;2023-03-01T03:14:24;5.80;78.20
1988;DHT22;12775;46.994;15.498;2023-03-01T03:16:52;5.70;78.00
1988;DHT22;12775;46.994;15.498;2023-03-01T03:19:19;5.80;78.20
1988;DHT22;12775;46.994;15.498;2023-03-01T03:21:46;5.80;77.90
1988;DHT22;12775;46.994;15.498;2023-03-01T03:24:14;5.80;78.00
1988;DHT22;12775;46.994;15.498;2023-03-01T03:26:42;5.80;78.50
1988;DHT22;12775;46.994;15.498;2023-03-01T03:29:09;5.80;78.60
1988;DHT22;12775;46.994;15.498;2023-03-01T03:31:37;5.80;78.40
1988;DHT22;12775;46.994;15.498;2023-03-01T03:34:04;5.90;78.30
1988;DHT22;12775;46.994;15.498;2023-03-01T03:36:31;5.90;78.30
1988;DHT22;12775;46.994;15.498;2023-03-01T03:38:59;5.80;79.20
1988;DHT22;12775;46.994;15.498;2023-03-01T03:41:26;5.80;79.40
1988;DHT22;12775;46.994;15.498;2023-03-01T03:43:54;5.80;78.90
1988;DHT22;12775;46.994;15.498;2023-03-01T03:46:21;5.80;79.20
1988;DHT22;12775;46.994;15.498;2023-03-01T03:48:48;5.80;79.70
1988;DHT22;12775;46.994;15.498;2023-03-01T03:51:16;5.70;79.20
1988;DHT22;12775;46.994;15.498;2023-03-01T03:53:43;5.70;79.20
1988;DHT22;12775;46.994;15.498;2023-03-01T03:56:11;5.70;78.90
1988;DHT22;12775;46.994;15.498;2023-03-01T03:58:39;5.80;78.80
1988;DHT22;12775;46.994;15.498;2023-03-01T04:01:07;5.80;78.90
1988;DHT22;12775;46.994;15.498;2023-03-01T04:03:35;5.80;78.60
1988;DHT22;12775;46.994;15.498;2023-03-01T04:06:03;5.80;78.70
1988;DHT22;12775;46.994;15.498;2023-03-01T04:08:30;5.80;78.20
1988;DHT22;12775;46.994;15.498;2023-03-01T04:10:59;5.70;78.00
1988;DHT22;12775;46.994;15.498;2023-03-01T04:13:25;5.80;78.00
1988;DHT22;12775;46.994;15.498;2023-03-01T04:15:53;5.80;78.00
1988;DHT22;12775;46.994;15.498;2023-03-01T04:18:21;5.80;78.40
1988;DHT22;12775;46.994;15.498;2023-03-01T04:20:48;5.80;78.20
1988;DHT22;12775;46.994;15.498;2023-03-01T04:23:16;5.80;77.70
1988;DHT22;12775;46.994;15.498;2023-03-01T04:25:50;5.70;77.60
1988;DHT22;12775;46.994;15.498;2023-03-01T04:28:16;5.70;77.50
1988;DHT22;12775;46.994;15.498;2023-03-01T04:30:43;5.80;78.20
1988;DHT22;12775;46.994;15.498;2023-03-01T04:33:10;5.80;78.00
1988;DHT22;12775;46.994;15.498;2023-03-01T04:35:37;5.80;78.20
1988;DHT22;12775;46.994;15.498;2023-03-01T04:38:04;5.80;78.30
1988;DHT22;12775;46.994;15.498;2023-03-01T04:40:32;5.80;78.30
1988;DHT22;12775;46.994;15.498;2023-03-01T04:42:59;5.80;79.10
1988;DHT22;12775;46.994;15.498;2023-03-01T04:45:26;5.80;78.30
1988;DHT22;12775;46.994;15.498;2023-03-01T04:47:54;5.80;78.20
1988;DHT22;12775;46.994;15.498;2023-03-01T04:50:21;5.80;78.00
1988;DHT22;12775;46.994;15.498;2023-03-01T04:52:49;5.80;78.70
1988;DHT22;12775;46.994;15.498;2023-03-01T04:55:16;5.80;78.70
1988;DHT22;12775;46.994;15.498;2023-03-01T04:57:43;5.80;78.10
1988;DHT22;12775;46.994;15.498;2023-03-01T05:00:12;5.80;77.80
1988;DHT22;12775;46.994;15.498;2023-03-01T05:02:51;5.70;77.90
1988;DHT22;12775;46.994;15.498;2023-03-01T05:05:17;5.70;77.90
1988;DHT22;12775;46.994;15.498;2023-03-01T05:07:45;5.70;78.60
1988;DHT22;12775;46.994;15.498;2023-03-01T05:10:12;5.80;78.70
1988;DHT22;12775;46.994;15.498;2023-03-01T05:12:39;5.70;78.80
1988;DHT22;12775;46.994;15.498;2023-03-01T05:15:07;5.70;78.30
1988;DHT22;12775;46.994;15.498;2023-03-01T05:17:35;5.80;78.50
1988;DHT22;12775;46.994;15.498;2023-03-01T05:20:02;5.80;78.00
1988;DHT22;12775;46.994;15.498;2023-03-01T05:22:30;5.80;78.10
1988;DHT22;12775;46.994;15.498;2023-03-01T05:24:57;5.80;78.10
1988;DHT22;12775;46.994;15.498;2023-03-01T05:27:24;5.80;78.10
1988;DHT22;12775;46.994;15.498;2023-03-01T05:29:52;5.80;77.70
1988;DHT22;12775;46.994;15.498;2023-03-01T05:32:19;5.80;77.80
1988;DHT22;12775;46.994;15.498;2023-03-01T05:34:47;5.80;77.90
1988;DHT22;12775;46.994;15.498;2023-03-01T05:37:14;5.80;78.20
1988;DHT22;12775;46.994;15.498;2023-03-01T05:39:40;5.70;78.10
1988;DHT22;12775;46.994;15.498;2023-03-01T05:42:10;5.50;78.30
1988;DHT22;12775;46.994;15.498;2023-03-01T05:44:36;5.50;79.10
1988;DHT22;12775;46.994;15.498;2023-03-01T05:47:03;5.50;79.50
1988;DHT22;12775;46.994;15.498;2023-03-01T05:49:31;5.50;79.10
1988;DHT22;12775;46.994;15.498;2023-03-01T05:51:58;5.40;78.10
1988;DHT22;12775;46.994;15.498;2023-03-01T05:54:26;5.40;78.50
1988;DHT22;12775;46.994;15.498;2023-03-01T05:56:54;5.40;78.10
1988;DHT22;12775;46.994;15.498;2023-03-01T05:59:21;5.40;78.00
1988;DHT22;12775;46.994;15.498;2023-03-01T06:01:49;5.40;78.00
1988;DHT22;12775;46.994;15.498;2023-03-01T06:04:17;5.40;77.70
1988;DHT22;12775;46.994;15.498;2023-03-01T06:06:44;5.40;78.20
1988;DHT22;12775;46.994;15.498;2023-03-01T06:09:12;5.40;78.30
1988;DHT22;12775;46.994;15.498;2023-03-01T06:11:39;5.30;78.40
1988;DHT22;12775;46.994;15.498;2023-03-01T06:14:07;5.30;78.70
1988;DHT22;12775;46.994;15.498;2023-03-01T06:16:34;5.20;78.60
1988;DHT22;12775;46.994;15.498;2023-03-01T06:19:01;5.20;78.60
1988;DHT22;12775;46.994;15.498;2023-03-01T06:21:29;5.20;78.20
1988;DHT22;12775;46.994;15.498;2023-03-01T06:23:56;5.20;78.40
1988;DHT22;12775;46.994;15.498;2023-03-01T06:26:23;5.20;79.00
1988;DHT22;12775;46.994;15.498;2023-03-01T06:28:51;5.20;80.00
1988;DHT22;12775;46.994;15.498;2023-03-01T06:31:18;5.20;78.90
1988;DHT22;12775;46.994;15.498;2023-03-01T06:33:45;5.20;77.90
1988;DHT22;12775;46.994;15.498;2023-03-01T06:36:13;5.20;77.50
1988;DHT22;12775;46.994;15.498;2023-03-01T06:38:40;5.10;77.40
1988;DHT22;12775;46.994;15.498;2023-03-01T06:41:08;5.00;77.40
1988;DHT22;12775;46.994;15.498;2023-03-01T06:43:36;5.00;77.20
1988;DHT22;12775;46.994;15.498;2023-03-01T06:46:04;5.00;76.90
1988;DHT22;12775;46.994;15.498;2023-03-01T06:48:31;5.00;76.90
1988;DHT22;12775;46.994;15.498;2023-03-01T06:50:59;5.00;77.00
1988;DHT22;12775;46.994;15.498;2023-03-01T06:53:28;5.00;77.10
1988;DHT22;12775;46.994;15.498;2023-03-01T06:55:55;5.00;77.00
1988;DHT22;12775;46.994;15.498;2023-03-01T06:58:21;5.00;76.90
1988;DHT22;12775;46.994;15.498;2023-03-01T07:00:48;5.00;75.50
1988;DHT22;12775;46.994;15.498;2023-03-01T07:03:16;5.00;76.00
1988;DHT22;12775;46.994;15.498;2023-03-01T07:05:43;5.00;75.90
1988;DHT22;12775;46.994;15.498;2023-03-01T07:08:11;5.00;75.70
1988;DHT22;12775;46.994;15.498;2023-03-01T07:10:39;5.00;76.00
1988;DHT22;12775;46.994;15.498;2023-03-01T07:13:06;5.10;78.80
1988;DHT22;12775;46.994;15.498;2023-03-01T07:15:35;5.10;79.20
1988;DHT22;12775;46.994;15.498;2023-03-01T07:18:03;5.10;79.30
1988;DHT22;12775;46.994;15.498;2023-03-01T07:20:30;5.20;81.40
1988;DHT22;12775;46.994;15.498;2023-03-01T07:22:57;5.10;76.90
1988;DHT22;12775;46.994;15.498;2023-03-01T07:25:25;5.10;77.60
1988;DHT22;12775;46.994;15.498;2023-03-01T07:27:53;5.10;81.40
1988;DHT22;12775;46.994;15.498;2023-03-01T07:30:20;5.20;80.40
1988;DHT22;12775;46.994;15.498;2023-03-01T07:32:47;5.20;80.30
1988;DHT22;12775;46.994;15.498;2023-03-01T07:35:15;5.20;81.40
1988;DHT22;12775;46.994;15.498;2023-03-01T07:37:43;5.20;80.60
1988;DHT22;12775;46.994;15.498;2023-03-01T07:40:11;5.20;80.00
1988;DHT22;12775;46.994;15.498;2023-03-01T07:42:39;5.30;79.30
1988;DHT22;12775;46.994;15.498;2023-03-01T07:45:07;5.30;80.10
1988;DHT22;12775;46.994;15.498;2023-03-01T07:47:34;5.30;82.10
1988;DHT22;12775;46.994;15.498;2023-03-01T07:50:03;5.30;81.60
1988;DHT22;12775;46.994;15.498;2023-03-01T07:52:30;5.30;81.10
1988;DHT22;12775;46.994;15.498;2023-03-01T07:54:57;5.40;79.10
1988;DHT22;12775;46.994;15.498;2023-03-01T07:57:25;5.40;80.30
1988;DHT22;12775;46.994;15.498;2023-03-01T07:59:52;5.30;79.70
1988;DHT22;12775;46.994;15.498;2023-03-01T08:02:20;5.30;82.00
1988;DHT22;12775;46.994;15.498;2023-03-01T08:04:47;5.30;82.10
1988;DHT22;12775;46.994;15.498;2023-03-01T08:07:15;5.30;81.90
1988;DHT22;12775;46.994;15.498;2023-03-01T08:09:43;5.30;82.60
1988;DHT22;12775;46.994;15.498;2023-03-01T08:12:11;5.40;81.00
1988;DHT22;12775;46.994;15.498;2023-03-01T08:14:38;5.40;80.10
1988;DHT22;12775;46.994;15.498;2023-03-01T08:17:07;5.40;81.30
1988;DHT22;12775;46.994;15.498;2023-03-01T08:19:34;5.30;78.40
1988;DHT22;12775;46.994;15.498;2023-03-01T08:22:01;5.20;79.70
1988;DHT22;12775;46.994;15.498;2023-03-01T08:24:29;5.20;78.80
1988;DHT22;12775;46.994;15.498;2023-03-01T08:26:56;5.30;79.40
1988;DHT22;12775;46.994;15.498;2023-03-01T08:29:23;5.20;78.10
1988;DHT22;12775;46.994;15.498;2023-03-01T08:31:52;5.20;80.10
1988;DHT22;12775;46.994;15.498;2023-03-01T08:34:19;5.20;80.90
1988;DHT22;12775;46.994;15.498;2023-03-01T08:36:46;5.20;79.20
1988;DHT22;12775;46.994;15.498;2023-03-01T08:39:14;5.20;79.70
1988;DHT22;12775;46.994;15.498;2023-03-01T08:41:41;5.20;80.70
1988;DHT22;12775;46.994;15.498;2023-03-01T08:44:09;5.30;81.70
1988;DHT22;12775;46.994;15.498;2023-03-01T08:46:38;5.30;82.00
1988;DHT22;12775;46.994;15.498;2023-03-01T08:49:06;5.30;81.80
1988;DHT22;12775;46.994;15.498;2023-03-01T08:51:35;5.30;81.70
1988;DHT22;12775;46.994;15.498;2023-03-01T08:54:01;5.30;81.10
1988;DHT22;12775;46.994;15.498;2023-03-01T08:56:29;5.40;81.10
1988;DHT22;12775;46.994;15.498;2023-03-01T08:58:56;5.30;81.50
1988;DHT22;12775;46.994;15.498;2023-03-01T09:01:24;5.30;82.10
1988;DHT22;12775;46.994;15.498;2023-03-01T09:03:51;5.40;82.20
1988;DHT22;12775;46.994;15.498;2023-03-01T09:06:19;5.50;82.20
1988;DHT22;12775;46.994;15.498;2023-03-01T09:08:47;5.40;81.20
1988;DHT22;12775;46.994;15.498;2023-03-01T09:11:14;5.30;81.70
1988;DHT22;12775;46.994;15.498;2023-03-01T09:13:41;5.40;81.50
1988;DHT22;12775;46.994;15.498;2023-03-01T09:16:08;5.50;81.90
1988;DHT22;12775;46.994;15.498;2023-03-01T09:18:36;5.50;81.70
1988;DHT22;12775;46.994;15.498;2023-03-01T09:21:05;5.50;81.30
1988;DHT22;12775;46.994;15.498;2023-03-01T09:23:36;5.60;82.00
1988;DHT22;12775;46.994;15.498;2023-03-01T09:26:03;5.70;81.70
1988;DHT22;12775;46.994;15.498;2023-03-01T09:28:30;5.70;81.80
1988;DHT22;12775;46.994;15.498;2023-03-01T09:30:59;5.80;80.80
1988;DHT22;12775;46.994;15.498;2023-03-01T09:33:27;5.70;80.10
1988;DHT22;12775;46.994;15.498;2023-03-01T09:35:57;5.70;80.40
1988;DHT22;12775;46.994;15.498;2023-03-01T09:38:23;5.70;81.40
1988;DHT22;12775;46.994;15.498;2023-03-01T09:40:50;5.80;81.70
1988;DHT22;12775;46.994;15.498;2023-03-01T09:43:21;5.80;81.70
1988;DHT22;12775;46.994;15.498;2023-03-01T09:45:46;5.90;80.90
1988;DHT22;12775;46.994;15.498;2023-03-01T09:48:16;6.00;81.40
1988;DHT22;12775;46.994;15.498;2023-03-01T09:50:41;6.10;79.80
1988;DHT22;12775;46.994;15.498;2023-03-01T09:53:11;6.20;80.30
1988;DHT22;12775;46.994;15.498;2023-03-01T09:55:44;6.30;79.80
1988;DHT22;12775;46.994;15.498;2023-03-01T10:01:38;6.30;80.00
1988;DHT22;12775;46.994;15.498;2023-03-01T10:04:13;6.30;80.00
1988;DHT22;12775;46.994;15.498;2023-03-01T10:06:39;6.40;80.00
1988;DHT22;12775;46.994;15.498;2023-03-01T10:09:07;6.50;79.90
1988;DHT22;12775;46.994;15.498;2023-03-01T10:11:38;6.50;79.50
1988;DHT22;12775;46.994;15.498;2023-03-01T10:16:52;6.60;79.20
1988;DHT22;12775;46.994;15.498;2023-03-01T10:19:23;6.70;79.50
1988;DHT22;12775;46.994;15.498;2023-03-01T10:21:49;6.70;77.80
1988;DHT22;12775;46.994;15.498;2023-03-01T10:24:17;6.60;78.70
1988;DHT22;12775;46.994;15.498;2023-03-01T10:26:46;6.60;78.80
1988;DHT22;12775;46.994;15.498;2023-03-01T10:29:11;6.50;78.50
1988;DHT22;12775;46.994;15.498;2023-03-01T10:31:53;6.60;78.50
1988;DHT22;12775;46.994;15.498;2023-03-01T10:34:25;6.60;78.60
1988;DHT22;12775;46.994;15.498;2023-03-01T10:36:50;6.70;78.30
1988;DHT22;12775;46.994;15.498;2023-03-01T10:39:18;6.80;76.60
1988;DHT22;12775;46.994;15.498;2023-03-01T10:42:04;6.80;77.60
1988;DHT22;12775;46.994;15.498;2023-03-01T10:44:37;6.80;77.90
1988;DHT22;12775;46.994;15.498;2023-03-01T10:47:03;6.80;77.70
1988;DHT22;12775;46.994;15.498;2023-03-01T10:49:30;6.90;78.80
1988;DHT22;12775;46.994;15.498;2023-03-01T10:51:58;7.00;77.20
1988;DHT22;12775;46.994;15.498;2023-03-01T10:54:28;6.60;76.90
1988;DHT22;12775;46.994;15.498;2023-03-01T10:56:53;6.70;78.20
1988;DHT22;12775;46.994;15.498;2023-03-01T10:59:32;6.80;79.10
1988;DHT22;12775;46.994;15.498;2023-03-01T11:07:21;6.80;77.80
1988;DHT22;12775;46.994;15.498;2023-03-01T11:09:48;6.80;78.20
1988;DHT22;12775;46.994;15.498;2023-03-01T11:12:17;6.80;77.50
1988;DHT22;12775;46.994;15.498;2023-03-01T11:14:47;6.80;78.10
1988;DHT22;12775;46.994;15.498;2023-03-01T11:17:17;6.90;77.80
1988;DHT22;12775;46.994;15.498;2023-03-01T11:19:42;6.90;77.70
1988;DHT22;12775;46.994;15.498;2023-03-01T11:22:12;6.90;79.20
1988;DHT22;12775;46.994;15.498;2023-03-01T11:24:44;7.00;79.80
1988;DHT22;12775;46.994;15.498;2023-03-01T11:27:16;7.00;79.90
1988;DHT22;12775;46.994;15.498;2023-03-01T11:29:44;6.90;79.40
1988;DHT22;12775;46.994;15.498;2023-03-01T11:32:11;7.10;80.70
1988;DHT22;12775;46.994;15.498;2023-03-01T11:34:50;7.10;81.00
1988;DHT22;12775;46.994;15.498;2023-03-01T11:37:21;7.10;80.90
1988;DHT22;12775;46.994;15.498;2023-03-01T11:39:51;7.10;80.90
1988;DHT22;12775;46.994;15.498;2023-03-01T11:42:20;7.10;77.90
1988;DHT22;12775;46.994;15.498;2023-03-01T11:44:47;7.10;78.30
1988;DHT22;12775;46.994;15.498;2023-03-01T11:47:23;7.30;79.80
1988;DHT22;12775;46.994;15.498;2023-03-01T11:50:04;7.30;77.50
1988;DHT22;12775;46.994;15.498;2023-03-01T11:58:38;7.30;79.50
1988;DHT22;12775;46.994;15.498;2023-03-01T12:00:59;7.30;80.70
1988;DHT22;12775;46.994;15.498;2023-03-01T12:06:05;7.50;77.20
1988;DHT22;12775;46.994;15.498;2023-03-01T12:08:36;7.60;78.00
1988;DHT22;12775;46.994;15.498;2023-03-01T12:11:23;7.70;79.20
1988;DHT22;12775;46.994;15.498;2023-03-01T12:13:54;7.70;76.30
1988;DHT22;12775;46.994;15.498;2023-03-01T12:16:28;7.60;78.10
1988;DHT22;12775;46.994;15.498;2023-03-01T12:22:22;7.90;80.50
1988;DHT22;12775;46.994;15.498;2023-03-01T12:24:56;7.80;77.80
1988;DHT22;12775;46.994;15.498;2023-03-01T12:30:09;7.70;78.80
1988;DHT22;12775;46.994;15.498;2023-03-01T12:32:35;7.80;78.90
1988;DHT22;12775;46.994;15.498;2023-03-01T12:35:11;7.90;79.70
1988;DHT22;12775;46.994;15.498;2023-03-01T12:38:44;8.10;80.10
1988;DHT22;12775;46.994;15.498;2023-03-01T12:40:31;8.10;78.70
1988;DHT22;12775;46.994;15.498;2023-03-01T12:43:02;8.20;77.30
1988;DHT22;12775;46.994;15.498;2023-03-01T12:45:43;8.20;78.50
1988;DHT22;12775;46.994;15.498;2023-03-01T12:48:19;8.30;77.10
1988;DHT22;12775;46.994;15.498;2023-03-01T12:50:46;8.30;77.50
1988;DHT22;12775;46.994;15.498;2023-03-01T12:53:27;8.40;78.00
1988;DHT22;12775;46.994;15.498;2023-03-01T12:55:54;8.40;76.30
1988;DHT22;12775;46.994;15.498;2023-03-01T12:58:35;8.40;77.80
1988;DHT22;12775;46.994;15.498;2023-03-01T13:06:55;8.70;78.50
1988;DHT22;12775;46.994;15.498;2023-03-01T13:09:27;8.70;78.40
1988;DHT22;12775;46.994;15.498;2023-03-01T13:11:52;8.70;76.90
1988;DHT22;12775;46.994;15.498;2023-03-01T13:14:35;8.70;75.60
1988;DHT22;12775;46.994;15.498;2023-03-01T13:17:02;8.70;76.50
1988;DHT22;12775;46.994;15.498;2023-03-01T13:19:29;8.80;76.30
1988;DHT22;12775;46.994;15.498;2023-03-01T13:21:57;8.90;77.60
1988;DHT22;12775;46.994;15.498;2023-03-01T13:27:21;9.00;77.60
1988;DHT22;12775;46.994;15.498;2023-03-01T13:29:50;9.10;75.70
1988;DHT22;12775;46.994;15.498;2023-03-01T13:32:23;9.10;76.20
1988;DHT22;12775;46.994;15.498;2023-03-01T13:34:52;9.10;77.50
1988;DHT22;12775;46.994;15.498;2023-03-01T13:37:21;9.00;73.40
1988;DHT22;12775;46.994;15.498;2023-03-01T13:39:48;9.10;74.20
1988;DHT22;12775;46.994;15.498;2023-03-01T13:42:29;9.20;75.00
1988;DHT22;12775;46.994;15.498;2023-03-01T13:44:52;9.30;76.00
1988;DHT22;12775;46.994;15.498;2023-03-01T13:47:20;9.30;75.40
1988;DHT22;12775;46.994;15.498;2023-03-01T13:49:53;9.40;75.60
1988;DHT22;12775;46.994;15.498;2023-03-01T13:52:40;9.40;75.50
1988;DHT22;12775;46.994;15.498;2023-03-01T13:55:30;9.50;75.80
1988;DHT22;12775;46.994;15.498;2023-03-01T13:57:55;9.50;74.90
1988;DHT22;12775;46.994;15.498;2023-03-01T14:00:36;9.40;72.80
1988;DHT22;12775;46.994;15.498;2023-03-01T14:03:03;9.30;73.90
1988;DHT22;12775;46.994;15.498;2023-03-01T14:05:30;9.40;74.60
1988;DHT22;12775;46.994;15.498;2023-03-01T14:07:57;9.20;73.40
1988;DHT22;12775;46.994;15.498;2023-03-01T14:10:25;9.30;73.60
1988;DHT22;12775;46.994;15.498;2023-03-01T14:15:37;9.40;76.20
1988;DHT22;12775;46.994;15.498;2023-03-01T14:18:19;9.40;74.70
1988;DHT22;12775;46.994;15.498;2023-03-01T14:20:44;9.40;74.70
1988;DHT22;12775;46.994;15.498;2023-03-01T14:23:13;9.10;75.50
1988;DHT22;12775;46.994;15.498;2023-03-01T14:25:46;9.10;75.70
1988;DHT22;12775;46.994;15.498;2023-03-01T14:28:15;9.20;78.10
1988;DHT22;12775;46.994;15.498;2023-03-01T14:30:43;9.10;78.40
1988;DHT22;12775;46.994;15.498;2023-03-01T14:33:21;9.20;78.50
1988;DHT22;12775;46.994;15.498;2023-03-01T14:35:54;9.20;78.20
1988;DHT22;12775;46.994;15.498;2023-03-01T14:38:22;9.20;79.40
1988;DHT22;12775;46.994;15.498;2023-03-01T14:40:49;9.20;81.30
1988;DHT22;12775;46.994;15.498;2023-03-01T14:43:17;9.20;80.50
1988;DHT22;12775;46.994;15.498;2023-03-01T14:45:46;9.20;80.50
1988;DHT22;12775;46.994;15.498;2023-03-01T14:48:10;9.30;79.70
1988;DHT22;12775;46.994;15.498;2023-03-01T14:50:41;9.30;79.30
1988;DHT22;12775;46.994;15.498;2023-03-01T14:53:07;9.30;79.80
1988;DHT22;12775;46.994;15.498;2023-03-01T14:55:36;9.30;80.00
1988;DHT22;12775;46.994;15.498;2023-03-01T14:58:04;9.40;80.20
1988;DHT22;12775;46.994;15.498;2023-03-01T15:00:31;9.40;79.40
1988;DHT22;12775;46.994;15.498;2023-03-01T15:03:00;9.40;79.10
1988;DHT22;12775;46.994;15.498;2023-03-01T15:05:29;9.40;79.10
1988;DHT22;12775;46.994;15.498;2023-03-01T15:07:57;9.40;78.60
1988;DHT22;12775;46.994;15.498;2023-03-01T15:10:25;9.40;80.40
1988;DHT22;12775;46.994;15.498;2023-03-01T15:12:52;9.30;81.40
1988;DHT22;12775;46.994;15.498;2023-03-01T15:15:35;9.30;81.90
1988;DHT22;12775;46.994;15.498;2023-03-01T15:18:03;9.30;82.40
1988;DHT22;12775;46.994;15.498;2023-03-01T15:20:28;9.20;82.20
1988;DHT22;12775;46.994;15.498;2023-03-01T15:22:57;9.20;83.40
1988;DHT22;12775;46.994;15.498;2023-03-01T15:25:26;9.20;83.20
1988;DHT22;12775;46.994;15.498;2023-03-01T15:27:53;9.20;83.30
1988;DHT22;12775;46.994;15.498;2023-03-01T15:30:31;9.20;82.80
1988;DHT22;12775;46.994;15.498;2023-03-01T15:35:40;9.10;82.70
1988;DHT22;12775;46.994;15.498;2023-03-01T15:38:26;9.10;83.20
1988;DHT22;12775;46.994;15.498;2023-03-01T15:40:54;9.10;83.50
1988;DHT22;12775;46.994;15.498;2023-03-01T15:46:02;9.10;83.10
1988;DHT22;12775;46.994;15.498;2023-03-01T15:48:30;9.00;83.20
1988;DHT22;12775;46.994;15.498;2023-03-01T15:50:57;9.00;82.80
1988;DHT22;12775;46.994;15.498;2023-03-01T15:53:24;9.00;82.50
1988;DHT22;12775;46.994;15.498;2023-03-01T15:55:52;9.00;82.10
1988;DHT22;12775;46.994;15.498;2023-03-01T15:58:20;9.00;82.20
1988;DHT22;12775;46.994;15.498;2023-03-01T16:00:46;9.00;82.10
1988;DHT22;12775;46.994;15.498;2023-03-01T16:03:14;9.00;82.20
1988;DHT22;12775;46.994;15.498;2023-03-01T16:05:42;8.90;83.00
1988;DHT22;12775;46.994;15.498;2023-03-01T16:08:09;8.90;82.80
1988;DHT22;12775;46.994;15.498;2023-03-01T16:10:36;8.80;82.50
1988;DHT22;12775;46.994;15.498;2023-03-01T16:13:04;8.80;83.10
1988;DHT22;12775;46.994;15.498;2023-03-01T16:15:32;8.80;83.60
1988;DHT22;12775;46.994;15.498;2023-03-01T16:17:59;8.70;84.00
1988;DHT22;12775;46.994;15.498;2023-03-01T16:20:27;8.70;85.30
1988;DHT22;12775;46.994;15.498;2023-03-01T16:22:54;8.70;85.00
1988;DHT22;12775;46.994;15.498;2023-03-01T16:25:22;8.70;85.50
1988;DHT22;12775;46.994;15.498;2023-03-01T16:27:49;8.60;85.20
1988;DHT22;12775;46.994;15.498;2023-03-01T16:30:18;8.60;84.60
1988;DHT22;12775;46.994;15.498;2023-03-01T16:32:46;8.60;84.80
1988;DHT22;12775;46.994;15.498;2023-03-01T16:35:13;8.50;84.60
1988;DHT22;12775;46.994;15.498;2023-03-01T16:37:41;8.60;84.70